Portada
METAR-TAF:

METAR-TAF

Aeroports :

Armilla

Granada, Espanya

latitud: 37-08N, longitud: 003-38-08W, altitud: 700 m

Observació

L'informe es va fer fa 57 minuts, a les 07:00 UTC
Vent 3 kt del Oest/Nord-Oest, variant entre Oest i Nord/Nord-Oest
Temperatura 22°C
Humitat 60%
Pressió 1018 hPa
Visibilitat 10 km o més
sense núvols per sota de 1500 mi sense presència de cumulonimbus.

METAR: LEGA 250700Z 30003KT 260V330 CAVOK 22/14 Q1018

Hora: 09:57 (07:57 UTC)

Pronòstic

L'informe es va fer fa 2 hores i 57 minuts, a les 05:00 UTC
Pronòstic vàlid del 25 a les 06 UTC al 25 a les 15 UTC
Vent 3 kt del Nord-Oest
Visibilitat 10 km o més
sense núvols per sota de 1500 mi sense presència de cumulonimbus.

TAF: LEGA 250500Z 2506/2515 31003KT CAVOK

Observacions i pronòstics meteorològics de més de 4000 aeroports (METAR i TAF).

Les estacions disponibles són els punts grocs i vermells al mapa.

Posi el ratolí al punt desitjat per veure el nom de l'estació.

Feu clic per veure les observacions i els pronòstics meteorològics.

Per canviar el mapa: feu clic els botons verds amb una creu de color negre per apropar; al botó verd amb un guió per allunyar la imatge; o en les fletxes verdes per a mapes adjacents.


METAR-TAF: